createdAt,value
2023-09-08T00:01:40.817Z,99003.95
2023-09-08T00:04:42.691Z,99004.61
2023-09-08T00:07:44.391Z,99002.40
2023-09-08T00:10:46.601Z,99000.60
2023-09-08T00:13:50.685Z,99000.41
2023-09-08T00:16:54.928Z,98998.08
2023-09-08T00:19:57.683Z,98998.73
2023-09-08T00:22:59.349Z,98997.88
2023-09-08T00:26:01.101Z,98998.22
2023-09-08T00:29:02.943Z,98997.92
2023-09-08T00:32:05.024Z,99000.26
2023-09-08T00:35:07.068Z,98999.48
2023-09-08T00:38:08.901Z,98998.75
2023-09-08T00:41:10.561Z,98993.70
2023-09-08T00:44:12.351Z,98998.50
2023-09-08T00:47:14.295Z,98997.36
2023-09-08T00:50:16.027Z,98997.15
2023-09-08T00:53:18.258Z,98994.34
2023-09-08T00:56:20.664Z,98992.64
2023-09-08T00:59:22.962Z,98997.36
2023-09-08T01:02:24.805Z,98995.70
2023-09-08T01:05:26.908Z,98997.64
2023-09-08T01:08:29.540Z,98999.48
2023-09-08T01:11:32.214Z,99000.63
2023-09-08T01:14:33.944Z,98998.51
2023-09-08T01:17:35.574Z,98994.87
2023-09-08T01:20:59.063Z,98992.75
2023-09-08T01:24:22.332Z,98998.90
2023-09-08T01:27:26.023Z,98997.27
2023-09-08T01:30:33.033Z,98994.62
2023-09-08T01:33:35.091Z,98996.40
2023-09-08T01:36:36.678Z,98995.70
2023-09-08T01:39:38.316Z,98993.11
2023-09-08T01:42:40.960Z,98996.55
2023-09-08T01:45:42.626Z,98999.56
2023-09-08T01:48:45.165Z,99001.48
2023-09-08T01:51:46.887Z,98999.67
2023-09-08T01:54:48.946Z,98998.19
2023-09-08T01:57:50.658Z,98996.92
2023-09-08T02:00:52.748Z,98995.96
2023-09-08T02:03:54.446Z,98996.48
2023-09-08T02:06:56.109Z,98992.38
2023-09-08T02:09:57.741Z,98995.48
2023-09-08T02:13:20.910Z,98998.23
2023-09-08T02:16:23.974Z,98995.09
2023-09-08T02:19:27.730Z,98994.00
2023-09-08T02:22:30.859Z,98995.52
2023-09-08T02:25:34.041Z,98991.55
2023-09-08T02:28:37.452Z,98991.59
2023-09-08T02:31:40.787Z,98991.13
2023-09-08T02:34:44.981Z,98989.16
2023-09-08T02:37:48.925Z,98989.00
2023-09-08T02:40:51.949Z,98984.41
2023-09-08T02:43:54.979Z,98977.20
2023-09-08T02:46:58.034Z,98971.89
2023-09-08T02:50:01.547Z,98971.34
2023-09-08T02:53:04.685Z,98967.06
2023-09-08T02:56:07.758Z,98967.05
2023-09-08T02:59:10.646Z,98963.80
2023-09-08T03:02:14.346Z,98963.64
2023-09-08T03:05:17.503Z,98961.11
2023-09-08T03:08:20.558Z,98954.85
2023-09-08T03:11:23.598Z,98951.02
2023-09-08T03:14:26.566Z,98948.51
2023-09-08T03:17:29.884Z,98951.00
2023-09-08T03:20:32.859Z,98952.83
2023-09-08T03:23:43.689Z,98950.55
2023-09-08T03:26:46.756Z,98949.77
2023-09-08T03:29:49.676Z,98950.11
2023-09-08T03:32:52.643Z,98949.75
2023-09-08T03:35:56.471Z,98947.88
2023-09-08T03:38:59.513Z,98944.73
2023-09-08T03:42:02.989Z,98947.84
2023-09-08T03:45:06.300Z,98944.83
2023-09-08T03:48:09.587Z,98945.31
2023-09-08T03:51:12.777Z,98936.53
2023-09-08T03:54:16.000Z,98937.50
2023-09-08T03:57:19.030Z,98939.58
2023-09-08T04:00:25.262Z,98934.52
2023-09-08T04:03:28.370Z,98936.77
2023-09-08T04:06:32.130Z,98936.94
2023-09-08T04:09:35.240Z,98945.20
2023-09-08T04:12:38.269Z,98947.04
2023-09-08T04:15:41.313Z,98940.88
2023-09-08T04:18:44.549Z,98946.05
2023-09-08T04:21:47.575Z,98949.94
2023-09-08T04:24:51.008Z,98948.77
2023-09-08T04:27:54.477Z,98947.56
2023-09-08T04:30:57.505Z,98946.06
2023-09-08T04:34:00.841Z,98944.34
2023-09-08T04:37:04.381Z,98947.27
2023-09-08T04:40:08.680Z,98946.40
2023-09-08T04:43:11.966Z,98948.38
2023-09-08T04:46:14.995Z,98949.55
2023-09-08T04:49:18.053Z,98952.09
2023-09-08T04:52:22.418Z,98950.91
2023-09-08T04:55:25.606Z,98950.82
2023-09-08T04:58:28.638Z,98951.20
2023-09-08T05:01:33.729Z,98950.48
2023-09-08T05:04:38.340Z,98950.55
2023-09-08T05:07:41.485Z,98956.39
2023-09-08T05:10:47.626Z,98960.23
2023-09-08T05:13:51.468Z,98960.26
2023-09-08T05:16:57.363Z,98961.86
2023-09-08T05:20:04.509Z,98962.08
2023-09-08T05:23:07.668Z,98963.70
2023-09-08T05:32:01.210Z,98959.14
2023-09-08T05:35:05.523Z,98961.86
2023-09-08T05:38:08.671Z,98960.45
2023-09-08T05:41:11.856Z,98964.02
2023-09-08T05:44:15.255Z,98965.79
2023-09-08T05:47:18.568Z,98964.03
2023-09-08T05:50:21.972Z,98963.14
2023-09-08T05:53:25.587Z,98962.30
2023-09-08T05:56:32.963Z,98961.78
2023-09-08T05:59:36.132Z,98963.02
2023-09-08T06:02:39.279Z,98960.39
2023-09-08T06:05:42.561Z,98953.38
2023-09-08T06:08:45.552Z,98959.02
2023-09-08T06:11:48.881Z,98958.39
2023-09-08T06:14:52.389Z,98957.66
2023-09-08T06:17:55.626Z,98956.20
2023-09-08T06:20:59.067Z,98955.75
2023-09-08T06:24:06.451Z,98959.85
2023-09-08T06:27:10.367Z,98959.77
2023-09-08T06:30:19.401Z,98960.79
2023-09-08T06:33:23.577Z,98958.00
2023-09-08T06:36:36.076Z,98958.61
2023-09-08T06:39:39.556Z,98959.31
2023-09-08T06:42:44.894Z,98956.00
2023-09-08T06:45:54.395Z,98956.17
2023-09-08T06:48:58.669Z,98952.93
2023-09-08T06:52:02.023Z,98953.74
2023-09-08T06:55:06.342Z,98954.48
2023-09-08T06:58:09.473Z,98953.63
2023-09-08T07:01:12.603Z,98953.89
2023-09-08T07:04:16.111Z,98957.38
2023-09-08T07:07:21.661Z,98960.55
2023-09-08T07:10:25.759Z,98958.48
2023-09-08T07:13:29.158Z,98962.71
2023-09-08T07:16:33.951Z,98962.89
2023-09-08T07:19:44.966Z,98963.32
2023-09-08T07:22:48.487Z,98965.05
2023-09-08T07:25:51.831Z,98965.11
2023-09-08T07:28:58.156Z,98962.66
2023-09-08T07:32:03.935Z,98966.80
2023-09-08T07:35:15.344Z,98967.05
2023-09-08T07:38:22.359Z,98967.52
2023-09-08T07:41:25.741Z,98966.54
2023-09-08T07:44:29.974Z,98964.31
2023-09-08T07:47:33.303Z,98964.52
2023-09-08T07:50:39.090Z,98962.54
2023-09-08T07:53:42.285Z,98958.09
2023-09-08T07:56:45.485Z,98964.48
2023-09-08T07:59:48.553Z,98967.33
2023-09-08T08:02:55.623Z,98968.11
2023-09-08T08:06:00.026Z,98962.92
2023-09-08T08:09:03.694Z,98965.01
2023-09-08T08:12:06.924Z,98959.77
2023-09-08T08:15:11.364Z,98960.85
2023-09-08T08:18:14.809Z,98960.92
2023-09-08T08:21:18.038Z,98959.86
2023-09-08T08:24:21.062Z,98963.05
2023-09-08T08:27:24.216Z,98962.76
2023-09-08T08:30:28.457Z,98959.39
2023-09-08T08:33:33.269Z,98961.64
2023-09-08T08:36:36.589Z,98956.73
2023-09-08T08:39:40.364Z,98948.05
2023-09-08T08:42:43.734Z,98951.63
2023-09-08T08:45:50.199Z,98947.30
2023-09-08T08:48:55.659Z,98944.58
2023-09-08T08:52:09.667Z,98943.23
2023-09-08T08:55:13.716Z,98942.84
2023-09-08T08:58:29.811Z,98941.79
2023-09-08T09:01:36.574Z,98939.77
2023-09-08T09:04:40.507Z,98935.89
2023-09-08T09:07:44.366Z,98933.67
2023-09-08T09:10:48.077Z,98932.80
2023-09-08T09:13:51.225Z,98932.71
2023-09-08T09:16:57.955Z,98931.73
2023-09-08T09:20:15.547Z,98935.05
2023-09-08T09:23:31.754Z,98930.95
2023-09-08T09:26:35.043Z,98933.63
2023-09-08T09:29:48.934Z,98926.15
2023-09-08T09:33:06.055Z,98928.38
2023-09-08T09:36:10.436Z,98923.34
2023-09-08T09:39:18.000Z,98924.48
2023-09-08T09:42:22.853Z,98927.34
2023-09-08T09:45:29.223Z,98925.16
2023-09-08T09:48:32.468Z,98922.90
2023-09-08T09:51:41.983Z,98925.80
2023-09-08T09:54:47.897Z,98922.31
2023-09-08T09:57:52.852Z,98924.83
2023-09-08T10:00:58.052Z,98923.92
2023-09-08T10:04:02.538Z,98925.83
2023-09-08T10:07:05.669Z,98921.52
2023-09-08T10:10:09.887Z,98918.96
2023-09-08T10:13:15.122Z,98915.73
2023-09-08T10:16:21.959Z,98913.51
2023-09-08T10:19:25.190Z,98911.00
2023-09-08T10:22:33.314Z,98910.05
2023-09-08T10:25:43.530Z,98910.21
2023-09-08T10:28:47.138Z,98908.49
2023-09-08T10:31:50.395Z,98905.07
2023-09-08T10:34:55.220Z,98901.90
2023-09-08T10:38:24.989Z,98900.89
2023-09-08T10:41:29.996Z,98897.11
2023-09-08T10:44:33.886Z,98892.46
2023-09-08T10:48:00.009Z,98891.29
2023-09-08T10:51:06.194Z,98892.22
2023-09-08T10:54:09.420Z,98891.32
2023-09-08T10:57:17.686Z,98890.92
2023-09-08T11:00:21.792Z,98885.23
2023-09-08T11:03:43.363Z,98885.28
2023-09-08T11:06:46.478Z,98882.40
2023-09-08T11:09:49.472Z,98881.20
2023-09-08T11:12:52.793Z,98880.57
2023-09-08T11:15:56.819Z,98875.80
2023-09-08T11:19:00.013Z,98880.42
2023-09-08T11:22:03.665Z,98876.45
2023-09-08T11:25:12.804Z,98873.53
2023-09-08T11:35:58.510Z,98863.67
2023-09-08T11:39:01.009Z,98859.93
2023-09-08T11:42:03.241Z,98860.73
2023-09-08T11:45:05.556Z,98860.90
2023-09-08T11:48:07.363Z,98863.73
2023-09-08T11:51:09.514Z,98862.58
2023-09-08T11:54:11.841Z,98856.30
2023-09-08T11:57:14.176Z,98853.43
2023-09-08T12:00:18.496Z,98852.76
2023-09-08T12:03:20.336Z,98853.63
2023-09-08T12:06:27.869Z,98849.75
2023-09-08T12:09:29.738Z,98852.34
2023-09-08T12:12:31.408Z,98851.94
2023-09-08T12:15:35.744Z,98851.36
2023-09-08T12:18:39.636Z,98845.71
2023-09-08T12:21:58.312Z,98842.58
2023-09-08T12:25:02.469Z,98838.11
2023-09-08T12:28:04.973Z,98833.01
2023-09-08T12:31:13.131Z,98829.36
2023-09-08T12:34:15.837Z,98825.61
2023-09-08T12:37:25.666Z,98823.40
2023-09-08T12:40:30.691Z,98822.75
2023-09-08T12:43:32.517Z,98822.95
2023-09-08T12:46:36.007Z,98819.45
2023-09-08T12:49:37.734Z,98817.37
2023-09-08T12:52:39.892Z,98817.04
2023-09-08T12:55:41.655Z,98811.23
2023-09-08T12:58:43.415Z,98818.69
2023-09-08T13:01:45.234Z,98819.19
2023-09-08T13:04:49.055Z,98817.70
2023-09-08T13:07:50.786Z,98815.41
2023-09-08T13:10:53.114Z,98813.41
2023-09-08T13:13:54.834Z,98811.70
2023-09-08T13:16:56.658Z,98810.92
2023-09-08T13:19:58.307Z,98807.84
2023-09-08T13:23:00.115Z,98809.64
2023-09-08T13:26:01.794Z,98806.71
2023-09-08T13:29:03.801Z,98808.39
2023-09-08T13:32:06.115Z,98807.48
2023-09-08T13:35:08.140Z,98799.13
2023-09-08T13:38:09.732Z,98793.33
2023-09-08T13:41:11.506Z,98793.03
2023-09-08T13:44:13.306Z,98792.69
2023-09-08T13:47:15.664Z,98785.49
2023-09-08T13:50:24.562Z,98785.32
2023-09-08T13:53:41.738Z,98785.32
2023-09-08T14:00:04.782Z,98782.27
2023-09-08T14:03:15.556Z,98778.04
2023-09-08T14:06:21.898Z,98778.56
2023-09-08T14:12:36.033Z,98772.52
2023-09-08T14:15:38.241Z,98769.43
2023-09-08T14:18:40.736Z,98764.07
2023-09-08T14:21:42.447Z,98767.25
2023-09-08T14:24:44.135Z,98761.77
2023-09-08T14:27:45.912Z,98761.96
2023-09-08T14:30:47.637Z,98761.76
2023-09-08T14:33:49.646Z,98766.23
2023-09-08T14:36:51.386Z,98763.13
2023-09-08T14:39:53.025Z,98757.36
2023-09-08T14:42:55.064Z,98755.02
2023-09-08T14:45:59.768Z,98751.50
2023-09-08T14:49:02.823Z,98747.94
2023-09-08T14:52:04.586Z,98751.98
2023-09-08T14:55:06.520Z,98753.67
2023-09-08T14:58:08.114Z,98751.85
2023-09-08T15:01:10.397Z,98750.04
2023-09-08T15:04:12.298Z,98751.03
2023-09-08T15:07:13.916Z,98746.76
2023-09-08T15:10:16.053Z,98749.61
2023-09-08T15:13:18.002Z,98745.99
2023-09-08T15:16:19.608Z,98748.24
2023-09-08T15:19:21.293Z,98745.45
2023-09-08T15:22:23.330Z,98738.47
2023-09-08T15:25:24.957Z,98739.95
2023-09-08T15:28:26.594Z,98738.52
2023-09-08T15:31:28.389Z,98736.02
2023-09-08T15:34:30.052Z,98740.32
2023-09-08T15:37:31.736Z,98740.79
2023-09-08T15:40:33.319Z,98741.14
2023-09-08T15:43:38.864Z,98739.36
2023-09-08T15:46:41.467Z,98738.19
2023-09-08T15:49:43.244Z,98734.63
2023-09-08T15:52:44.881Z,98735.02
2023-09-08T15:55:46.668Z,98732.25
2023-09-08T15:58:48.369Z,98731.76
2023-09-08T16:01:50.259Z,98727.48
2023-09-08T16:04:52.046Z,98725.63
2023-09-08T16:07:53.712Z,98723.29
2023-09-08T16:10:55.879Z,98721.30
2023-09-08T16:13:57.466Z,98717.83
2023-09-08T16:16:59.064Z,98713.41
2023-09-08T16:20:00.968Z,98712.64
2023-09-08T16:23:03.897Z,98706.84
2023-09-08T16:26:05.587Z,98705.67
2023-09-08T16:29:07.349Z,98705.52
2023-09-08T16:32:11.160Z,98707.32
2023-09-08T16:35:13.376Z,98708.98
2023-09-08T16:38:15.199Z,98710.11
2023-09-08T16:41:16.785Z,98707.89
2023-09-08T16:44:18.408Z,98709.42
2023-09-08T16:47:20.998Z,98710.05
2023-09-08T16:50:22.829Z,98712.41
2023-09-08T16:53:24.445Z,98710.00
2023-09-08T16:56:26.141Z,98705.34
2023-09-08T16:59:27.911Z,98705.80
2023-09-08T17:02:29.988Z,98704.16
2023-09-08T17:05:31.721Z,98701.69
2023-09-08T17:08:33.564Z,98704.63
2023-09-08T17:11:40.597Z,98704.92
2023-09-08T17:14:42.390Z,98701.66
2023-09-08T17:17:44.384Z,98711.02
2023-09-08T17:20:46.546Z,98714.70
2023-09-08T17:23:48.241Z,98717.42
2023-09-08T17:26:49.904Z,98716.60
2023-09-08T17:29:51.631Z,98725.48
2023-09-08T17:32:53.276Z,98724.16
2023-09-08T17:35:54.922Z,98727.02
2023-09-08T17:38:56.727Z,98731.34
2023-09-08T17:47:44.958Z,98722.76
2023-09-08T17:50:47.919Z,98725.80
2023-09-08T17:53:50.851Z,98727.86
2023-09-08T17:56:53.828Z,98729.98
2023-09-08T17:59:56.736Z,98731.30
2023-09-08T18:02:59.911Z,98729.84
2023-09-08T18:06:05.478Z,98733.38
2023-09-08T18:09:08.997Z,98726.17
2023-09-08T18:12:12.247Z,98729.28
2023-09-08T18:15:15.315Z,98727.77
2023-09-08T18:18:20.806Z,98733.62
2023-09-08T18:21:23.969Z,98735.39
2023-09-08T18:24:27.137Z,98735.44
2023-09-08T18:27:31.169Z,98735.55
2023-09-08T18:30:34.736Z,98733.98
2023-09-08T18:33:38.207Z,98738.77
2023-09-08T18:36:41.780Z,98736.45
2023-09-08T18:39:47.604Z,98736.46
2023-09-08T18:42:50.700Z,98737.61
2023-09-08T18:45:54.194Z,98736.13
2023-09-08T18:48:57.253Z,98735.45
2023-09-08T18:52:00.170Z,98735.84
2023-09-08T18:55:05.029Z,98731.23
2023-09-08T18:58:09.019Z,98729.64
2023-09-08T19:01:12.077Z,98729.77
2023-09-08T19:04:15.083Z,98727.36
2023-09-08T19:07:18.145Z,98730.42
2023-09-08T19:10:21.223Z,98732.98
2023-09-08T19:13:24.167Z,98734.35
2023-09-08T19:16:27.162Z,98735.11
2023-09-08T19:19:30.214Z,98735.08
2023-09-08T19:22:33.206Z,98735.94
2023-09-08T19:25:40.224Z,98738.24
2023-09-08T19:28:43.223Z,98737.15
2023-09-08T19:31:46.196Z,98740.35
2023-09-08T19:34:49.153Z,98742.91
2023-09-08T19:37:52.159Z,98748.09
2023-09-08T19:41:03.625Z,98745.76
2023-09-08T19:44:07.492Z,98747.91
2023-09-08T19:47:10.608Z,98750.56
2023-09-08T19:50:13.629Z,98747.63
2023-09-08T19:53:17.169Z,98749.71
2023-09-08T19:56:20.264Z,98749.63
2023-09-08T19:59:23.335Z,98746.14
2023-09-08T20:02:26.283Z,98745.93
2023-09-08T20:05:29.263Z,98746.08
2023-09-08T20:08:32.374Z,98743.84
2023-09-08T20:11:35.400Z,98743.04
2023-09-08T20:14:38.273Z,98744.25
2023-09-08T20:17:41.778Z,98742.23
2023-09-08T20:20:44.940Z,98744.23
2023-09-08T20:23:47.940Z,98749.21
2023-09-08T20:26:51.097Z,98747.95
2023-09-08T20:29:57.606Z,98750.04
2023-09-08T20:33:00.883Z,98748.39
2023-09-08T20:36:04.094Z,98751.46
2023-09-08T20:39:07.372Z,98754.05
2023-09-08T20:42:12.672Z,98756.14
2023-09-08T20:45:18.639Z,98755.23
2023-09-08T20:48:22.822Z,98755.07
2023-09-08T20:51:25.784Z,98754.82
2023-09-08T20:54:30.121Z,98755.41
2023-09-08T20:57:34.038Z,98752.60
2023-09-08T21:00:40.619Z,98752.11
2023-09-08T21:03:43.704Z,98748.52
2023-09-08T21:06:47.090Z,98748.98
2023-09-08T21:09:50.396Z,98747.25
2023-09-08T21:12:53.782Z,98750.75
2023-09-08T21:15:58.074Z,98751.06
2023-09-08T21:19:01.887Z,98750.21
2023-09-08T21:22:05.867Z,98748.36
2023-09-08T21:25:11.979Z,98744.80
2023-09-08T21:28:16.674Z,98748.20
2023-09-08T21:31:20.452Z,98750.21
2023-09-08T21:34:26.484Z,98746.56
2023-09-08T21:37:29.528Z,98743.24
2023-09-08T21:40:32.626Z,98742.64
2023-09-08T21:43:35.885Z,98736.62
2023-09-08T21:46:39.073Z,98735.05
2023-09-08T21:49:42.195Z,98734.62
2023-09-08T21:52:45.415Z,98735.69
2023-09-08T21:55:48.381Z,98737.15
2023-09-08T21:58:51.284Z,98740.96
2023-09-08T22:01:54.280Z,98743.93
2023-09-08T22:04:57.431Z,98743.81
2023-09-08T22:08:00.754Z,98741.06
2023-09-08T22:11:06.158Z,98741.14
2023-09-08T22:14:09.639Z,98740.81
2023-09-08T22:17:12.611Z,98734.88
2023-09-08T22:20:16.832Z,98736.51
2023-09-08T22:23:19.744Z,98738.15
2023-09-08T22:26:23.734Z,98736.52
2023-09-08T22:29:26.847Z,98733.48
2023-09-08T22:32:29.807Z,98730.30
2023-09-08T22:35:32.828Z,98731.95
2023-09-08T22:38:36.038Z,98729.70
2023-09-08T22:41:39.024Z,98730.23
2023-09-08T22:44:42.024Z,98731.42
2023-09-08T22:47:45.157Z,98728.16
2023-09-08T22:50:48.753Z,98728.46
2023-09-08T22:53:51.787Z,98724.57
2023-09-08T22:56:54.695Z,98723.86
2023-09-08T22:59:57.864Z,98724.45
2023-09-08T23:03:01.007Z,98722.38
2023-09-08T23:06:04.527Z,98725.07
2023-09-08T23:09:07.734Z,98723.27
2023-09-08T23:12:11.368Z,98720.61
2023-09-08T23:15:14.711Z,98716.61
2023-09-08T23:18:18.194Z,98715.37
2023-09-08T23:21:21.217Z,98712.33
2023-09-08T23:24:24.337Z,98712.05
2023-09-08T23:27:27.340Z,98708.52
2023-09-08T23:30:30.336Z,98707.91
2023-09-08T23:33:33.534Z,98703.40
2023-09-08T23:36:36.493Z,98703.05
2023-09-08T23:39:39.426Z,98702.23
2023-09-08T23:42:42.796Z,98701.48
2023-09-08T23:45:46.398Z,98701.07
2023-09-08T23:48:49.580Z,98699.22
2023-09-08T23:51:53.056Z,98695.48
2023-09-08T23:54:55.981Z,98691.45
2023-09-08T23:57:58.934Z,98693.73
